createdAt,value
2018-04-25T00:00:02.092Z,15.50
2018-04-25T00:02:28.231Z,15.30
2018-04-25T00:04:54.390Z,15.40
2018-04-25T00:07:20.512Z,15.40
2018-04-25T00:09:46.751Z,15.40
2018-04-25T00:12:12.887Z,15.30
2018-04-25T00:14:39.088Z,15.30
2018-04-25T00:17:05.259Z,15.30
2018-04-25T00:19:31.852Z,15.30
2018-04-25T00:21:58.099Z,15.40
2018-04-25T00:24:24.305Z,15.30
2018-04-25T00:26:50.392Z,15.40
2018-04-25T00:29:16.516Z,15.30
2018-04-25T00:31:42.658Z,15.20
2018-04-25T00:34:09.550Z,15.20
2018-04-25T00:36:35.728Z,15.20
2018-04-25T00:39:01.855Z,15.20
2018-04-25T00:41:28.737Z,15.20
2018-04-25T00:43:54.907Z,15.10
2018-04-25T00:46:21.056Z,15.10
2018-04-25T00:48:47.959Z,15.10
2018-04-25T00:51:14.077Z,15.10
2018-04-25T00:53:40.263Z,15.10
2018-04-25T00:56:06.445Z,15.20
2018-04-25T00:58:32.617Z,15.10
2018-04-25T01:00:58.763Z,15.00
2018-04-25T01:03:24.944Z,15.00
2018-04-25T01:05:51.855Z,14.90
2018-04-25T01:08:17.998Z,14.90
2018-04-25T01:10:44.163Z,14.90
2018-04-25T01:13:10.342Z,14.90
2018-04-25T01:15:37.290Z,14.80
2018-04-25T01:18:03.444Z,14.90
2018-04-25T01:20:29.839Z,14.70
2018-04-25T01:22:56.243Z,14.70
2018-04-25T01:25:30.209Z,14.70
2018-04-25T01:28:00.766Z,14.70
2018-04-25T01:30:37.884Z,14.70
2018-04-25T01:33:04.072Z,14.70
2018-04-25T01:35:30.213Z,14.70
2018-04-25T01:38:00.197Z,14.70
2018-04-25T01:40:26.407Z,14.70
2018-04-25T01:42:52.574Z,14.70
2018-04-25T01:48:31.564Z,15.00
2018-04-25T01:50:57.569Z,14.60
2018-04-25T01:53:35.965Z,14.50
2018-04-25T01:56:14.206Z,14.50
2018-04-25T01:58:52.659Z,14.40
2018-04-25T02:01:18.595Z,14.40
2018-04-25T02:03:57.593Z,14.40
2018-04-25T02:06:23.740Z,14.30
2018-04-25T02:08:49.918Z,14.30
2018-04-25T02:11:16.095Z,14.30
2018-04-25T02:13:42.236Z,14.30
2018-04-25T02:16:08.353Z,14.30
2018-04-25T02:18:34.520Z,14.20
2018-04-25T02:21:00.705Z,14.20
2018-04-25T02:23:26.812Z,14.20
2018-04-25T02:25:52.961Z,14.20
2018-04-25T02:28:19.045Z,14.20
2018-04-25T02:30:45.929Z,14.10
2018-04-25T02:33:12.075Z,14.10
2018-04-25T02:35:38.240Z,14.10
2018-04-25T02:38:04.355Z,14.10
2018-04-25T02:40:31.237Z,14.20
2018-04-25T02:42:57.379Z,14.10
2018-04-25T02:45:23.520Z,14.10
2018-04-25T02:47:49.648Z,14.00
2018-04-25T02:50:15.794Z,13.90
2018-04-25T02:52:42.039Z,13.90
2018-04-25T02:55:08.153Z,13.90
2018-04-25T02:57:35.036Z,13.90
2018-04-25T03:00:01.175Z,13.90
2018-04-25T03:02:27.296Z,13.70
2018-04-25T03:04:53.415Z,13.80
2018-04-25T03:07:19.632Z,13.70
2018-04-25T03:09:45.991Z,13.70
2018-04-25T03:12:12.129Z,13.60
2018-04-25T03:14:38.243Z,13.60
2018-04-25T03:17:04.391Z,13.60
2018-04-25T03:19:31.294Z,13.50
2018-04-25T03:21:57.507Z,13.50
2018-04-25T03:24:23.675Z,13.50
2018-04-25T03:26:49.788Z,13.50
2018-04-25T03:29:15.907Z,13.50
2018-04-25T03:31:42.046Z,13.50
2018-04-25T03:34:08.200Z,13.50
2018-04-25T03:36:34.328Z,13.50
2018-04-25T03:39:00.438Z,13.50
2018-04-25T03:41:27.307Z,13.50
2018-04-25T03:43:53.445Z,13.50
2018-04-25T03:46:20.281Z,13.40
2018-04-25T03:48:46.426Z,13.40
2018-04-25T03:51:12.526Z,13.40
2018-04-25T03:53:38.660Z,13.30
2018-04-25T03:56:04.858Z,13.40
2018-04-25T03:58:30.979Z,13.40
2018-04-25T04:00:57.111Z,13.40
2018-04-25T04:03:23.964Z,13.30
2018-04-25T04:05:50.140Z,13.30
2018-04-25T04:08:16.278Z,13.30
2018-04-25T04:10:42.480Z,13.30
2018-04-25T04:13:08.593Z,13.30
2018-04-25T04:15:34.707Z,13.30
2018-04-25T04:18:00.806Z,13.30
2018-04-25T04:20:27.672Z,13.20
2018-04-25T04:22:53.872Z,13.20
2018-04-25T04:25:20.024Z,13.20
2018-04-25T04:27:46.134Z,13.20
2018-04-25T04:30:12.244Z,13.30
2018-04-25T04:32:39.078Z,13.30
2018-04-25T04:35:05.262Z,13.30
2018-04-25T04:37:31.396Z,13.30
2018-04-25T04:39:57.490Z,13.30
2018-04-25T04:42:23.658Z,13.30
2018-04-25T04:44:49.784Z,13.30
2018-04-25T04:47:15.956Z,13.30
2018-04-25T04:49:42.061Z,13.40
2018-04-25T04:52:08.187Z,13.40
2018-04-25T04:54:35.082Z,13.30
2018-04-25T04:57:01.223Z,13.30
2018-04-25T04:59:27.335Z,13.30
2018-04-25T05:01:53.494Z,13.30
2018-04-25T05:04:19.634Z,13.30
2018-04-25T05:06:46.498Z,13.30
2018-04-25T05:09:12.602Z,13.30
2018-04-25T05:11:38.731Z,13.30
2018-04-25T05:14:04.868Z,13.30
2018-04-25T05:16:30.996Z,13.40
2018-04-25T05:18:57.962Z,13.50
2018-04-25T05:21:24.094Z,13.50
2018-04-25T05:23:50.249Z,13.50
2018-04-25T05:26:16.405Z,13.50
2018-04-25T05:28:42.528Z,13.60
2018-04-25T05:31:08.660Z,13.60
2018-04-25T05:33:34.807Z,13.70
2018-04-25T05:36:00.910Z,13.70
2018-04-25T05:38:27.059Z,13.70
2018-04-25T05:40:53.179Z,13.70
2018-04-25T05:43:19.306Z,13.80
2018-04-25T05:45:45.426Z,13.80
2018-04-25T05:48:11.692Z,13.90
2018-04-25T05:50:37.830Z,13.90
2018-04-25T05:53:03.985Z,13.90
2018-04-25T05:55:30.112Z,14.00
2018-04-25T05:57:56.320Z,14.10
2018-04-25T06:00:22.423Z,14.20
2018-04-25T06:02:48.532Z,14.30
2018-04-25T06:05:14.673Z,14.40
2018-04-25T06:07:40.836Z,14.50
2018-04-25T06:10:06.985Z,14.70
2018-04-25T06:12:33.170Z,14.80
2018-04-25T06:14:59.299Z,14.80
2018-04-25T06:17:26.170Z,14.90
2018-04-25T06:19:52.319Z,15.00
2018-04-25T06:22:18.432Z,15.10
2018-04-25T06:24:44.584Z,15.20
2018-04-25T06:27:10.730Z,15.30
2018-04-25T06:29:37.598Z,15.50
2018-04-25T06:32:03.825Z,15.40
2018-04-25T06:34:30.043Z,15.60
2018-04-25T06:36:56.192Z,15.70
2018-04-25T06:39:22.405Z,15.70
2018-04-25T06:41:48.488Z,15.70
2018-04-25T06:44:14.591Z,15.70
2018-04-25T06:46:40.732Z,15.80
2018-04-25T06:49:06.915Z,15.90
2018-04-25T06:51:33.087Z,15.90
2018-04-25T06:53:59.239Z,16.00
2018-04-25T06:56:25.354Z,16.10
2018-04-25T06:58:51.527Z,16.10
2018-04-25T07:01:17.650Z,16.10
2018-04-25T07:03:43.953Z,16.10
2018-04-25T07:06:10.115Z,16.10
2018-04-25T07:08:36.287Z,16.20
2018-04-25T07:11:02.409Z,16.20
2018-04-25T07:13:28.645Z,16.20
2018-04-25T07:15:54.685Z,16.20
2018-04-25T07:18:20.833Z,16.20
2018-04-25T07:20:46.987Z,16.20
2018-04-25T07:23:13.114Z,16.30
2018-04-25T07:25:39.222Z,16.30
2018-04-25T07:28:05.567Z,16.40
2018-04-25T07:30:31.703Z,16.50
2018-04-25T07:33:01.778Z,16.40
2018-04-25T07:35:27.949Z,16.60
2018-04-25T07:37:54.778Z,16.90
2018-04-25T07:40:20.913Z,16.80
2018-04-25T07:42:47.079Z,16.90
2018-04-25T07:45:13.222Z,16.90
2018-04-25T07:47:39.345Z,16.90
2018-04-25T07:50:05.495Z,16.80
2018-04-25T07:52:31.591Z,16.90
2018-04-25T07:54:57.798Z,16.80
2018-04-25T07:57:24.125Z,16.80
2018-04-25T07:59:50.324Z,16.90
2018-04-25T08:02:16.460Z,17.10
2018-04-25T08:04:42.597Z,17.20
2018-04-25T08:07:08.708Z,17.20
2018-04-25T08:09:35.586Z,17.30
2018-04-25T08:12:01.778Z,17.30
2018-04-25T08:14:41.967Z,17.30
2018-04-25T08:17:20.242Z,17.20
2018-04-25T08:19:58.587Z,17.20
2018-04-25T08:22:24.758Z,17.20
2018-04-25T08:24:50.887Z,17.10
2018-04-25T08:27:17.066Z,17.00
2018-04-25T08:29:43.243Z,17.00
2018-04-25T08:32:09.366Z,17.10
2018-04-25T08:34:35.667Z,17.20
2018-04-25T08:37:01.863Z,17.30
2018-04-25T08:39:28.091Z,17.30
2018-04-25T08:41:54.237Z,17.30
2018-04-25T08:44:20.346Z,17.10
2018-04-25T08:46:46.490Z,17.10
2018-04-25T08:49:12.618Z,17.20
2018-04-25T08:51:38.848Z,17.20
2018-04-25T08:54:05.082Z,17.40
2018-04-25T08:56:31.334Z,17.40
2018-04-25T08:58:57.526Z,17.40
2018-04-25T09:01:23.667Z,17.40
2018-04-25T09:03:49.871Z,17.40
2018-04-25T09:06:16.216Z,17.30
2018-04-25T09:08:42.450Z,17.50
2018-04-25T09:11:08.608Z,17.70
2018-04-25T09:13:35.489Z,17.50
2018-04-25T09:16:01.699Z,17.40
2018-04-25T09:18:27.864Z,17.40
2018-04-25T09:20:54.014Z,17.30
2018-04-25T09:23:21.315Z,17.40
2018-04-25T09:25:47.495Z,17.50
2018-04-25T09:28:18.391Z,17.70
2018-04-25T09:30:45.453Z,17.80
2018-04-25T09:33:11.689Z,17.90
2018-04-25T09:35:37.951Z,17.90
2018-04-25T09:38:04.395Z,18.10
2018-04-25T09:40:30.631Z,18.20
2018-04-25T09:42:56.841Z,18.30
2018-04-25T09:45:23.523Z,18.40
2018-04-25T09:47:50.048Z,18.40
2018-04-25T09:50:16.359Z,18.40
2018-04-25T09:52:44.856Z,18.30
2018-04-25T09:55:11.263Z,18.40
2018-04-25T09:57:42.477Z,18.50
2018-04-25T10:00:10.291Z,18.50
2018-04-25T10:02:36.671Z,18.40
2018-04-25T10:05:03.777Z,18.40
2018-04-25T10:07:30.067Z,18.40
2018-04-25T10:09:56.895Z,18.40
2018-04-25T10:12:24.058Z,18.40
2018-04-25T10:14:50.388Z,18.40
2018-04-25T10:17:17.284Z,18.30
2018-04-25T10:19:47.647Z,18.30
2018-04-25T10:22:13.906Z,18.20
2018-04-25T10:24:40.872Z,18.30
2018-04-25T10:27:11.839Z,18.60
2018-04-25T10:29:38.160Z,18.60
2018-04-25T10:32:05.171Z,18.60
2018-04-25T10:34:31.339Z,18.60
2018-04-25T10:36:58.219Z,18.60
2018-04-25T10:39:25.412Z,18.50
2018-04-25T10:41:51.750Z,18.70
2018-04-25T10:44:18.012Z,18.80
2018-04-25T10:46:44.269Z,18.90
2018-04-25T10:49:14.964Z,18.90
2018-04-25T10:51:42.994Z,18.80
2018-04-25T10:54:14.179Z,18.80
2018-04-25T10:56:40.415Z,18.60
2018-04-25T10:59:06.706Z,18.50
2018-04-25T11:01:33.092Z,18.30
2018-04-25T11:03:59.792Z,18.10
2018-04-25T11:06:30.784Z,18.00
2018-04-25T11:08:57.136Z,17.90
2018-04-25T11:11:23.692Z,17.90
2018-04-25T11:13:50.093Z,18.00
2018-04-25T11:16:17.114Z,18.00
2018-04-25T11:18:44.262Z,18.00
2018-04-25T11:21:10.924Z,18.00
2018-04-25T11:23:37.766Z,18.00
2018-04-25T11:26:08.326Z,18.10
2018-04-25T11:28:35.322Z,18.20
2018-04-25T11:31:02.486Z,18.20
2018-04-25T11:33:29.629Z,18.30
2018-04-25T11:35:56.827Z,18.10
2018-04-25T11:38:27.067Z,18.00
2018-04-25T11:40:58.359Z,18.00
2018-04-25T11:43:25.463Z,17.90
2018-04-25T11:45:51.985Z,18.00
2018-04-25T11:48:21.767Z,18.20
2018-04-25T11:50:48.036Z,18.20
2018-04-25T11:53:14.293Z,18.30
2018-04-25T11:55:42.651Z,18.30
2018-04-25T11:58:09.323Z,18.20
2018-04-25T12:00:36.645Z,18.20
2018-04-25T12:03:04.003Z,18.10
2018-04-25T12:08:09.043Z,18.20
2018-04-25T12:10:35.259Z,18.30
2018-04-25T12:13:09.402Z,18.20
2018-04-25T12:15:35.545Z,18.20
2018-04-25T12:18:01.770Z,18.20
2018-04-25T12:20:29.659Z,18.30
2018-04-25T12:22:56.183Z,18.20
2018-04-25T12:25:30.643Z,18.30
2018-04-25T12:27:57.783Z,18.20
2018-04-25T12:32:59.832Z,18.10
2018-04-25T12:35:35.706Z,18.20
2018-04-25T12:40:43.789Z,18.30
2018-04-25T12:43:12.608Z,18.40
2018-04-25T12:45:42.014Z,18.20
2018-04-25T12:51:05.558Z,18.20
2018-04-25T12:53:32.468Z,18.20
2018-04-25T12:56:05.021Z,18.00
2018-04-25T12:58:31.926Z,18.00
2018-04-25T13:00:58.288Z,17.90
2018-04-25T13:03:30.492Z,18.00
2018-04-25T13:05:56.927Z,18.10
2018-04-25T13:08:23.949Z,18.10
2018-04-25T13:10:56.632Z,18.00
2018-04-25T13:13:24.210Z,18.10
2018-04-25T13:15:55.783Z,18.10
2018-04-25T13:18:32.866Z,18.10
2018-04-25T13:20:59.192Z,18.50
2018-04-25T13:23:25.519Z,18.80
2018-04-25T13:25:54.850Z,18.80
2018-04-25T13:28:25.980Z,18.80
2018-04-25T13:30:52.662Z,18.90
2018-04-25T13:33:20.088Z,18.80
2018-04-25T13:35:47.255Z,18.80
2018-04-25T13:38:14.984Z,18.60
2018-04-25T13:40:42.408Z,18.60
2018-04-25T13:43:09.085Z,18.30
2018-04-25T13:45:35.379Z,18.40
2018-04-25T13:48:03.091Z,18.30
2018-04-25T13:50:31.447Z,18.60
2018-04-25T13:53:04.481Z,18.20
2018-04-25T13:55:31.351Z,18.60
2018-04-25T13:57:57.702Z,18.60
2018-04-25T14:00:24.578Z,18.50
2018-04-25T14:02:51.276Z,18.50
2018-04-25T14:05:17.500Z,18.40
2018-04-25T14:07:46.523Z,18.20
2018-04-25T14:10:13.908Z,18.10
2018-04-25T14:16:18.186Z,17.90
2018-04-25T14:18:46.855Z,17.80
2018-04-25T14:23:56.245Z,17.90
2018-04-25T14:26:27.032Z,18.00
2018-04-25T14:34:48.706Z,18.10
2018-04-25T14:37:15.335Z,18.10
2018-04-25T14:42:16.906Z,18.10
2018-04-25T14:53:09.569Z,17.90
2018-04-25T14:55:36.993Z,17.80
2018-04-25T14:58:12.887Z,18.10
2018-04-25T15:00:49.419Z,18.10
2018-04-25T15:03:16.765Z,18.10
2018-04-25T15:05:48.717Z,18.00
2018-04-25T15:08:42.107Z,17.90
2018-04-25T15:11:14.288Z,17.80
2018-04-25T15:13:54.095Z,17.50
2018-04-25T15:16:31.964Z,17.20
2018-04-25T15:29:35.292Z,16.70
2018-04-25T15:32:01.615Z,16.60
2018-04-25T15:34:29.394Z,16.60
2018-04-25T15:36:56.359Z,16.30
2018-04-25T15:39:38.869Z,16.30
2018-04-25T15:42:05.639Z,16.20
2018-04-25T15:44:34.662Z,16.00
2018-04-25T15:47:01.854Z,15.90
2018-04-25T15:49:28.078Z,15.70
2018-04-25T15:51:54.404Z,15.70
2018-04-25T15:54:20.646Z,15.80
2018-04-25T15:56:49.712Z,15.80
2018-04-25T15:59:16.961Z,15.70
2018-04-25T16:01:44.837Z,15.80
2018-04-25T16:04:13.589Z,15.80
2018-04-25T16:06:41.843Z,15.90
2018-04-25T16:09:08.974Z,15.90
2018-04-25T16:11:45.606Z,15.80
2018-04-25T16:14:13.832Z,16.10
2018-04-25T16:16:41.935Z,16.10
2018-04-25T16:19:10.400Z,16.20
2018-04-25T16:21:36.913Z,16.20
2018-04-25T16:24:03.156Z,16.20
2018-04-25T16:26:29.469Z,16.20
2018-04-25T16:28:55.742Z,16.20
2018-04-25T16:31:22.876Z,16.20
2018-04-25T16:33:50.142Z,16.10
2018-04-25T16:36:16.970Z,16.10
2018-04-25T16:38:44.928Z,16.10
2018-04-25T16:41:11.381Z,16.10
2018-04-25T16:43:39.175Z,16.20
2018-04-25T16:48:44.251Z,16.20
2018-04-25T16:51:11.536Z,16.20
2018-04-25T16:53:38.519Z,16.20
2018-04-25T16:56:05.501Z,16.20
2018-04-25T16:58:32.264Z,16.20
2018-04-25T17:01:00.408Z,16.00
2018-04-25T17:03:37.643Z,16.20
2018-04-25T17:08:58.694Z,16.00
2018-04-25T17:17:13.943Z,16.10
2018-04-25T17:58:54.249Z,15.00
2018-04-25T18:15:47.566Z,14.70
2018-04-25T18:18:23.061Z,14.70
2018-04-25T20:16:47.617Z,14.90
2018-04-25T20:19:23.599Z,14.80
2018-04-25T20:48:10.080Z,14.70
2018-04-25T20:50:40.123Z,14.60
2018-04-25T20:55:58.268Z,14.70
2018-04-25T20:58:32.053Z,14.60
2018-04-25T21:00:58.422Z,14.60
2018-04-25T21:15:36.608Z,14.60
2018-04-25T21:18:02.884Z,14.60
2018-04-25T21:20:29.075Z,14.50
2018-04-25T21:22:56.039Z,14.50
2018-04-25T21:25:22.174Z,14.40
2018-04-25T21:27:48.455Z,14.40
2018-04-25T21:30:15.354Z,14.40
2018-04-25T21:32:41.551Z,14.30
2018-04-25T21:35:07.706Z,14.30
2018-04-25T21:37:33.861Z,14.30
2018-04-25T21:39:59.996Z,14.20
2018-04-25T21:42:26.195Z,14.30
2018-04-25T21:44:52.534Z,14.20
2018-04-25T21:47:18.736Z,14.20
2018-04-25T21:49:44.919Z,14.10
2018-04-25T21:52:11.863Z,14.00
2018-04-25T21:54:38.655Z,13.90
2018-04-25T21:57:04.807Z,13.80
2018-04-25T21:59:31.534Z,13.60
2018-04-25T22:01:57.686Z,13.80
2018-04-25T22:04:23.828Z,13.70
2018-04-25T22:06:49.959Z,13.60
2018-04-25T22:09:16.164Z,13.70
2018-04-25T22:11:42.356Z,13.70
2018-04-25T22:14:08.536Z,13.60
2018-04-25T22:16:35.551Z,13.50
2018-04-25T22:19:01.710Z,13.40
2018-04-25T22:21:27.833Z,13.30
2018-04-25T22:23:54.022Z,13.40
2018-04-25T22:26:20.194Z,13.40
2018-04-25T22:28:46.324Z,13.40
2018-04-25T22:31:12.462Z,13.40
2018-04-25T22:33:38.625Z,13.30
2018-04-25T22:36:04.814Z,13.30
2018-04-25T22:38:31.063Z,13.20
2018-04-25T22:40:57.235Z,13.00
2018-04-25T22:43:24.289Z,12.90
2018-04-25T22:45:50.445Z,12.80
2018-04-25T22:48:16.588Z,12.80
2018-04-25T22:50:42.785Z,12.70
2018-04-25T22:53:09.012Z,12.80
2018-04-25T22:55:35.191Z,12.60
2018-04-25T22:58:01.386Z,12.60
2018-04-25T23:00:28.104Z,12.50
2018-04-25T23:02:54.475Z,12.60
2018-04-25T23:05:20.638Z,12.70
2018-04-25T23:07:46.763Z,12.80
2018-04-25T23:10:13.700Z,12.70
2018-04-25T23:12:40.638Z,12.70
2018-04-25T23:15:06.772Z,12.70
2018-04-25T23:17:32.996Z,12.50
2018-04-25T23:19:59.126Z,12.70
2018-04-25T23:22:26.046Z,12.60
2018-04-25T23:24:52.322Z,12.60
2018-04-25T23:27:18.523Z,12.70
2018-04-25T23:29:44.769Z,12.60
2018-04-25T23:32:17.186Z,12.40
2018-04-25T23:34:43.367Z,12.40
2018-04-25T23:37:09.523Z,12.30
2018-04-25T23:39:35.692Z,12.30
2018-04-25T23:42:01.820Z,12.30
2018-04-25T23:44:28.736Z,12.30
2018-04-25T23:46:54.891Z,12.20
2018-04-25T23:49:21.755Z,12.20
2018-04-25T23:51:47.888Z,12.20
2018-04-25T23:54:14.072Z,12.10
2018-04-25T23:56:40.239Z,12.10
2018-04-25T23:59:06.448Z,11.90
